EDT,Max TemperatureF,Mean TemperatureF,Min TemperatureF,Max Dew PointF,MeanDew PointF,Min DewpointF,Max Humidity, Mean Humidity, Min Humidity, Max Sea Level PressureIn, Mean Sea Level PressureIn, Min Sea Level PressureIn, Max VisibilityMiles, Mean VisibilityMiles, Min VisibilityMiles, Max Wind SpeedMPH, Mean Wind SpeedMPH, Max Gust SpeedMPH,PrecipitationIn, CloudCover, Events, WindDirDegrees
2013-5-1,70,54,37,34,31,27,79,44,21,31.15,28.60,28.21,10,10,10,10,4,,0.00,0,,286
2013-5-2,79,60,41,42,36,33,82,53,19,31.13,28.84,28.21,10,10,10,21,3,28,0.00,1,,77
2013-5-3,63,53,43,42,39,35,80,62,43,31.15,28.51,28.21,10,10,10,12,5,20,0.00,1,,58
2013-5-4,64,52,39,42,36,23,93,59,23,31.13,31.09,31.05,10,10,10,13,4,18,0.00,0,,71
2013-5-5,64,49,34,37,34,32,89,62,33,31.10,31.05,31.00,10,10,10,12,5,13,0.00,0,,349
2013-5-6,72,53,34,47,39,32,92,62,24,31.04,30.97,30.88,10,10,10,12,2,,0.00,0,,106
2013-5-7,79,60,41,56,47,39,93,62,25,30.92,30.88,30.81,10,10,10,12,2,,0.00,0,,127
2013-5-8,73,62,52,61,56,49,90,77,51,30.94,30.76,30.07,10,10,4,17,5,22,0.01,4,Rain,117
2013-5-9,68,62,56,61,57,55,100,90,65,30.77,30.31,29.90,10,5,0,9,2,,0.29,5,Fog-Rain,123
2013-5-10,79,66,53,58,55,49,100,84,34,30.70,30.27,29.91,10,4,0,8,1,,0.00,5,Fog-Rain,163
2013-5-11,69,64,59,63,59,54,94,84,68,30.61,30.24,29.71,10,9,2,7,2,14,0.12,6,Rain,168
2013-5-12,70,60,50,61,48,25,100,68,31,30.53,30.26,29.64,10,9,4,28,3,34,0.01,5,Rain,311
2013-5-13,54,48,41,32,27,23,65,43,29,30.78,30.68,30.56,10,10,10,15,7,24,0.00,3,,286
2013-5-14,57,46,36,33,29,24,83,50,27,30.81,30.77,30.73,10,10,10,15,6,24,0.00,3,,320
2013-5-15,65,48,32,51,38,27,93,63,27,30.81,30.60,29.76,10,10,10,13,3,18,0.00,2,Rain,150
2013-5-16,81,63,45,48,37,28,96,43,17,30.55,30.40,30.35,10,10,6,17,6,28,0.00,0,,295
2013-5-17,68,59,48,42,38,32,71,48,26,30.97,30.77,30.58,10,10,10,22,8,28,0.00,2,,341
2013-5-18,72,56,41,48,38,31,89,54,22,31.06,31.01,30.97,10,10,10,12,2,22,0.00,3,,43
2013-5-19,70,59,48,55,50,45,100,80,42,31.10,30.79,30.23,10,8,2,13,1,,0.08,5,Rain,111
2013-5-20,81,68,55,62,57,55,100,84,49,30.93,30.47,30.02,10,7,2,12,1,18,0.05,4,Rain,324
2013-5-21,73,62,50,64,55,46,94,84,65,30.76,30.38,29.91,10,7,2,13,3,18,0.01,5,Rain-Thunderstorm,53
2013-5-22,65,58,50,58,51,48,97,89,76,30.71,30.29,29.91,10,6,2,12,5,,1.31,7,Rain-Thunderstorm,104
2013-5-23,75,64,52,70,58,52,100,92,73,30.66,30.11,29.79,10,3,0,9,1,,0.50,5,Fog-Rain-Thunderstorm,150
2013-5-24,72,60,47,65,57,45,97,88,65,30.58,30.05,29.68,10,5,1,18,6,20,1.26,7,Rain,351
2013-5-25,50,46,41,47,45,35,100,90,76,30.57,30.06,29.74,10,4,1,21,11,28,0.14,8,Rain,338
2013-5-26,59,49,39,37,36,34,87,67,39,30.84,30.49,29.72,10,10,6,26,14,33,0.04,6,Rain,320
2013-5-27,70,53,36,44,36,29,93,54,22,30.93,30.86,30.82,10,10,7,18,5,25,0.00,0,,312
2013-5-28,73,57,41,49,41,37,90,57,27,30.99,30.95,30.90,10,10,10,15,2,,0.00,0,,112
2013-5-29,68,62,56,63,58,50,100,90,77,30.91,30.47,30.00,10,7,2,7,1,,0.36,6,Rain-Thunderstorm,119
2013-5-30,88,76,63,67,63,58,93,67,35,30.80,30.77,30.73,10,10,10,14,3,17,0.01,1,Rain,288
2013-5-31,93,78,63,68,63,60,93,59,33,30.82,30.74,30.65,10,10,4,12,2,16,0.00,1,,272